Latest Weather Observations for Dubbo

IDN60801

Issued at 11:05 pm EDT Saturday 1 November 2014 (issued every 30 minutes, with the page automatically refreshed every 10 minutes)

About weather observations | Map of weather stations | Latest weather observations for NSW | Other Formats
Station Details ID: 065070 Name: DUBBO AIRPORT AWS Lat: -32.22 Lon: 148.58 Height: 284.0 m
Data from the previous 72 hours. | See also: Recent months at Dubbo
Date/Time
EDT
Temp
°C
App
Temp
°C
Dew
Point
Rel
Hum
%
Delta-T
°C
Wind Press
QNH
hPa
Press
MSL
hPa
Rain
since 9 am
mm
Dir
 
Spd
km/h
Gust
km/h
Spd
kts
Gust
kts
01/11:00pm 17.5 10.1 1.9 35 7.1 SSW 30 44 16 24 1015.3 1014.2 0.0
01/10:30pm 17.5 11.7 2.3 36 7.0 SSW 22 33 12 18 1014.7 1013.6 0.0
01/10:00pm 18.4 12.1 3.5 37 7.1 SSW 26 41 14 22 1014.1 1013.0 0.0
01/09:43pm 19.1 12.6 4.8 39 7.0 SSW 28 46 15 25 1013.8 1012.7 0.0
01/09:30pm 18.9 14.3 6.4 44 6.3 SW 20 33 11 18 1013.6 1012.5 0.0
01/09:00pm 19.0 14.0 6.5 44 6.3 SW 22 32 12 17 1012.9 1011.8 0.0
01/08:30pm 19.8 13.0 6.9 43 6.6 SW 32 43 17 23 1012.1 1011.0 0.0
01/08:00pm 20.1 15.0 9.1 49 5.9 SW 26 39 14 21 1011.3 1010.2 0.0
01/07:30pm 20.6 14.8 10.7 53 5.5 SW 32 41 17 22 1010.5 1009.4 0.0
01/07:08pm 21.3 15.9 10.8 51 5.8 SW 30 50 16 27 1009.9 1008.8 0.0
01/07:00pm 21.5 16.5 10.9 51 5.9 SW 28 41 15 22 1009.7 1008.6 0.0
01/06:30pm 22.4 16.1 10.9 48 6.4 SW 35 46 19 25 1008.9 1007.7 0.0
01/06:00pm 24.4 16.9 12.0 46 7.2 SW 43 61 23 33 1007.4 1006.3 0.0
01/05:32pm 25.8 18.8 12.6 44 7.7 SW 41 59 22 32 1006.5 1005.4 0.0
01/05:30pm 25.7 18.2 12.2 43 7.9 SW 43 59 23 32 1006.5 1005.4 0.0
01/05:00pm 28.7 22.2 11.7 35 10.0 SW 37 52 20 28 1005.6 1004.4 0.0
01/04:59pm 28.9 22.8 11.9 35 10.0 SW 35 44 19 24 1005.6 1004.4 0.0
01/04:30pm 30.2 24.0 13.9 37 9.9 W 39 50 21 27 1004.7 1003.6 0.0
01/04:18pm 29.6 24.8 12.9 35 10.0 W 30 48 16 26 1004.8 1003.7 0.0
01/04:00pm 28.4 24.9 14.6 43 8.5 WNW 26 35 14 19 1004.8 1003.7 0.0
01/03:30pm 29.0 26.3 15.5 44 8.4 WNW 24 39 13 21 1005.4 1004.2 0.0
01/03:00pm 28.5 25.1 15.8 46 7.9 WNW 28 41 15 22 1005.7 1004.5 0.0
01/02:30pm 26.7 24.3 16.3 53 6.5 WNW 24 35 13 19 1006.0 1004.8 0.0
01/02:00pm 27.1 23.3 16.7 53 6.5 NW 32 43 17 23 1006.6 1005.5 0.0
01/01:37pm 27.4 22.5 15.4 48 7.4 NW 35 54 19 29 1006.4 1005.3 0.0
01/01:30pm 28.3 23.4 15.2 44 8.1 NW 35 48 19 26 1006.4 1005.3 0.0
01/01:00pm 27.7 23.1 15.0 45 7.8 NW 33 48 18 26 1005.8 1004.6 0.0
01/12:30pm 28.2 23.0 15.5 46 7.9 NNW 37 57 20 31 1006.2 1005.1 0.0
01/12:20pm 28.2 22.3 14.8 44 8.2 NNW 39 57 21 31 1006.2 1005.1 0.0
01/12:00pm 28.6 21.8 14.8 43 8.5 NNW 44 57 24 31 1005.8 1004.6 0.0
01/11:30am 29.0 21.7 14.4 41 8.9 NNW 46 63 25 34 1005.7 1004.5 0.0
01/11:00am 30.5 22.6 15.0 39 9.6 NNW 50 69 27 37 1006.4 1005.3 0.0
01/10:59am 31.2 23.7 16.0 40 9.6 NNW 50 69 27 37 1006.5 1005.8 0.0
01/10:30am 28.4 19.8 15.0 44 8.2 NNW 54 69 29 37 1006.9 1006.3 0.0
01/10:09am 28.6 20.4 14.1 41 8.8 N 50 69 27 37 1006.2 1005.5 0.0
01/10:00am 28.9 20.2 14.7 42 8.7 N 54 69 29 37 1006.3 1005.6 0.0
01/09:30am 27.6 19.3 13.9 43 8.3 N 50 69 27 37 1006.7 1006.1 0.0
01/09:03am 27.3 21.2 14.0 44 8.0 N 39 61 21 33 1006.8 1006.2 0.0
01/09:00am 27.5 21.4 14.2 44 8.1 N 39 54 21 29 1007.0 1006.4 0.0
01/08:34am 26.6 22.3 14.4 47 7.4 N 30 48 16 26 1007.2 1006.6 0.0
01/08:30am 26.6 22.3 14.4 47 7.4 N 30 41 16 22 1007.3 1006.7 0.0
01/08:00am 24.2 21.9 14.0 53 6.1 NNE 19 28 10 15 1007.1 1006.5 0.0
01/07:30am 23.4 21.0 14.4 57 5.4 N 20 30 11 16 1007.3 1006.7 0.0
01/07:00am 22.2 20.3 14.1 60 4.8 N 17 20 9 11 1007.5 1006.9 0.0
01/06:30am 21.7 20.2 14.1 62 4.5 NNE 15 22 8 12 1007.2 1006.6 0.0
01/06:00am 21.3 19.3 14.0 63 4.3 N 17 24 9 13 1007.4 1006.8 0.0
01/05:30am 21.4 18.9 14.1 63 4.3 N 20 32 11 17 1007.1 1006.5 0.0
01/05:00am 20.8 18.5 14.2 66 3.9 N 19 24 10 13 1007.1 1006.5 0.0
01/04:30am 21.2 18.1 14.4 65 4.0 N 24 33 13 18 1007.5 1006.9 0.0
01/04:00am 21.4 18.1 14.1 63 4.3 N 24 35 13 19 1007.6 1007.0 0.0
01/03:30am 19.4 17.5 14.2 72 3.0 N 17 22 9 12 1008.0 1007.4 0.0
01/03:00am 17.9 17.0 13.6 76 2.5 ENE 11 13 6 7 1008.0 1007.4 0.0
01/02:30am 18.3 17.7 13.4 73 2.8 NE 9 13 5 7 1007.9 1007.3 0.0
01/02:00am 19.2 18.1 14.2 73 2.9 NNE 13 17 7 9 1008.4 1007.8 0.0
01/01:30am 19.6 18.6 14.6 73 2.9 NNE 13 17 7 9 1008.7 1008.0 0.0
01/01:00am 19.0 18.1 13.6 71 3.1 NNE 11 13 6 7 1009.0 1008.3 0.0
01/12:30am 20.2 19.3 13.6 66 3.8 NNE 11 13 6 7 1009.2 1008.5 0.0
01/12:00am 21.5 20.3 13.9 62 4.5 N 13 17 7 9 1009.2 1008.5 0.0
 
Date/Time
EDT
Temp
°C
App
Temp
°C
Dew
Point
Rel
Hum
%
Delta-T
°C
Wind Press
QNH
hPa
Press
MSL
hPa
Rain
since 9 am
mm
Dir
 
Spd
km/h
Gust
km/h
Spd
kts
Gust
kts
31/11:30pm 22.4 20.7 13.7 58 5.1 N 15 24 8 13 1009.5 1008.8 0.0
31/11:00pm 22.9 20.1 14.2 58 5.2 N 22 30 12 16 1009.8 1009.2 0.0
31/10:30pm 23.1 20.2 14.1 57 5.3 N 22 32 12 17 1010.3 1009.7 0.0
31/10:00pm 22.9 20.6 14.7 60 4.9 N 20 26 11 14 1010.7 1010.1 0.0
31/09:38pm 22.5 16.8 15.1 63 4.5 N 39 57 21 31 1010.8 1010.2 0.0
31/09:30pm 22.8 16.3 15.1 62 4.6 N 43 57 23 31 1010.1 1009.5 0.0
31/09:00pm 23.6 16.9 14.6 57 5.4 N 43 52 23 28 1010.4 1009.8 0.0
31/08:30pm 22.8 14.0 14.6 60 4.9 NNW 54 80 29 43 1010.0 1009.4 0.0
31/08:25pm 23.2 12.9 13.9 56 5.5 NNW 61 80 33 43 1009.7 1009.1 0.0
31/08:23pm 23.2 11.3 13.7 55 5.6 NNW 69 80 37 43 1009.1 1008.4 0.0
31/08:19pm 25.0 17.0 11.2 42 7.9 NNW 44 74 24 40 1009.1 1008.4 0.0
31/08:00pm 30.4 21.3 7.0 23 12.8 NNW 44 63 24 34 1007.7 1007.1 0.0
31/07:41pm 31.4 20.6 5.8 20 13.8 NW 52 70 28 38 1007.4 1006.8 0.0
31/07:39pm 31.6 20.0 5.9 20 13.9 NW 56 70 30 38 1007.2 1006.6 0.0
31/07:33pm 31.5 24.8 5.8 20 13.8 NW 30 48 16 26 1007.2 1006.6 0.0
31/07:30pm 31.4 25.5 5.8 20 13.8 NW 26 43 14 23 1007.2 1006.6 0.0
31/07:00pm 31.4 25.3 6.5 21 13.6 NW 28 41 15 22 1006.8 1006.2 0.0
31/06:57pm 31.6 24.6 5.9 20 13.9 NW 32 50 17 27 1006.8 1006.2 0.0
31/06:48pm 32.4 23.9 5.0 18 14.6 NW 39 50 21 27 1006.6 1006.0 0.0
31/06:30pm 33.6 28.8 2.4 14 16.1 NW 17 24 9 13 1006.4 1005.7 0.0
31/06:00pm 33.6 28.0 1.4 13 16.4 NW 20 26 11 14 1006.4 1005.7 0.0
31/05:30pm 35.1 28.8 1.5 12 17.2 N 24 33 13 18 1006.3 1005.6 0.0
31/05:00pm 35.6 29.5 0.6 11 17.8 NNW 22 37 12 20 1006.6 1006.0 0.0
31/04:30pm 35.9 28.0 0.9 11 17.9 NW 32 41 17 22 1007.0 1006.4 0.0
31/04:00pm 35.4 28.9 0.5 11 17.7 N 24 43 13 23 1007.3 1006.7 0.0
31/03:30pm 36.3 28.8 1.2 11 18.0 N 30 41 16 22 1007.8 1007.2 0.0
31/03:03pm 34.2 26.8 -0.4 11 17.1 N 28 46 15 25 1008.3 1007.7 0.0
31/03:00pm 34.8 28.4 1.2 12 17.1 N 24 32 13 17 1008.4 1007.8 0.0
31/02:30pm 35.2 28.9 1.5 12 17.3 N 24 44 13 24 1009.1 1008.4 0.0
31/02:00pm 35.8 30.1 3.1 13 17.3 N 22 33 12 18 1009.7 1009.1 0.0
31/01:30pm 34.4 28.2 2.0 13 16.7 NNW 24 41 13 22 1010.3 1009.7 0.0
31/01:00pm 33.7 28.7 1.5 13 16.4 N 17 35 9 19 1010.8 1010.2 0.0
31/12:30pm 33.5 27.0 2.4 14 16.0 N 26 43 14 23 1011.5 1010.9 0.0
31/12:00pm 33.5 26.8 1.3 13 16.3 N 26 35 14 19 1011.9 1011.3 0.0
31/11:30am 33.8 27.5 1.6 13 16.4 N 24 41 13 22 1012.6 1011.9 0.0
31/11:00am 33.4 25.1 2.3 14 16.0 NNW 35 46 19 25 1013.0 1012.4 0.0
31/10:30am 32.6 25.9 1.7 14 15.7 NNW 26 37 14 20 1013.5 1012.9 0.0
31/10:00am 29.5 26.5 1.9 17 13.8 ENE 7 13 4 7 1013.8 1013.2 0.0
31/09:30am 26.9 23.9 5.8 26 11.1 SE 11 13 6 7 1014.0 1013.4 0.0
31/09:00am 24.3 20.9 4.1 27 10.1 ESE 11 15 6 8 1014.0 1013.4 0.0
31/08:30am 21.6 17.8 3.8 31 8.7 SE 13 17 7 9 1013.9 1013.3 0.0
31/08:00am 19.7 15.4 3.0 33 7.9 SE 15 19 8 10 1013.7 1013.1 0.0
31/07:30am 16.9 12.7 3.9 42 6.2 SSE 15 19 8 10 1013.7 1013.1 0.0
31/07:00am 14.8 10.7 4.2 49 5.0 SSE 15 19 8 10 1013.4 1012.8 0.0
31/06:30am 12.5 8.7 3.7 55 4.0 SSE 13 15 7 8 1013.4 1012.8 0.0
31/06:00am 11.5 7.6 3.3 57 3.7 SSE 13 15 7 8 1013.0 1012.4 0.0
31/05:30am 11.3 7.4 3.3 58 3.6 SSE 13 15 7 8 1012.8 1012.2 0.0
31/05:00am 10.7 6.7 3.0 59 3.4 SSE 13 15 7 8 1012.7 1012.1 0.0
31/04:30am 11.8 8.2 2.8 54 4.0 SSE 11 15 6 8 1012.6 1011.9 0.0
31/04:00am 13.0 9.4 3.1 51 4.5 SE 11 13 6 7 1012.6 1011.9 0.0
31/03:30am 13.2 9.3 3.3 51 4.5 SSE 13 15 7 8 1012.7 1012.1 0.0
31/03:00am 13.8 9.1 3.3 49 4.8 SSE 17 19 9 10 1012.9 1012.3 0.0
31/02:30am 13.5 9.6 3.3 50 4.6 SSE 13 17 7 9 1013.0 1012.4 0.0
31/02:00am 13.5 10.0 3.6 51 4.5 SE 11 13 6 7 1013.3 1012.7 0.0
31/01:30am 13.0 9.5 3.4 52 4.4 SSE 11 15 6 8 1013.4 1012.8 0.0
31/01:00am 12.8 9.9 2.6 50 4.5 ESE 7 9 4 5 1013.8 1013.2 0.0
31/12:30am 14.2 11.0 3.1 47 5.1 SE 9 13 5 7 1014.0 1013.4 0.0
31/12:00am 16.1 13.3 3.2 42 6.0 E 7 9 4 5 1014.0 1013.4 0.0
 
Date/Time
EDT
Temp
°C
App
Temp
°C
Dew
Point
Rel
Hum
%
Delta-T
°C
Wind Press
QNH
hPa
Press
MSL
hPa
Rain
since 9 am
mm
Dir
 
Spd
km/h
Gust
km/h
Spd
kts
Gust
kts
30/11:30pm 18.1 16.6 2.8 36 7.1 CALM 0 0 0 0 1014.0 1013.4 0.0
30/11:00pm 17.1 14.3 2.3 37 6.8 SE 6 9 3 5 1013.9 1013.3 0.0
30/10:30pm 16.6 13.6 1.9 37 6.7 ENE 7 9 4 5 1013.9 1013.3 0.0
30/10:00pm 18.0 15.0 2.3 35 7.3 SE 7 9 4 5 1013.9 1013.3 0.0
30/09:30pm 19.5 16.2 2.4 32 8.0 SE 9 13 5 7 1013.8 1013.2 0.0
30/09:00pm 20.4 18.8 2.3 30 8.5 CALM 0 0 0 0 1013.6 1013.0 0.0
30/08:30pm 21.9 20.2 2.1 27 9.4 CALM 0 0 0 0 1013.4 1012.8 0.0
30/08:00pm 21.9 20.1 1.0 25 9.7 CALM 0 0 0 0 1013.2 1012.6 0.0
30/07:30pm 26.7 23.3 -0.3 17 12.7 WSW 7 9 4 5 1013.0 1012.4 0.0
30/07:00pm 29.6 24.7 -0.7 14 14.5 W 15 19 8 10 1012.7 1012.1 0.0
30/06:30pm 30.8 25.3 -1.9 12 15.4 W 17 20 9 11 1012.6 1011.9 0.0
30/06:00pm 31.5 26.7 -2.5 11 15.9 WSW 13 19 7 10 1012.5 1011.8 0.0
30/05:30pm 32.2 26.3 -2.0 11 16.2 W 19 24 10 13 1012.5 1011.8 0.0
30/05:00pm 31.8 27.0 -2.3 11 16.1 WNW 13 20 7 11 1012.6 1011.9 0.0
30/04:30pm 32.3 26.4 -1.9 11 16.3 W 19 28 10 15 1012.7 1012.1 0.0
30/04:00pm 32.1 27.8 -2.0 11 16.2 WSW 11 20 6 11 1012.9 1012.3 0.0
30/03:30pm 31.8 27.0 -2.3 11 16.1 W 13 26 7 14 1013.2 1012.6 0.0
30/03:00pm 32.0 25.2 -2.1 11 16.1 WNW 24 30 13 16 1013.5 1012.9 0.0
30/02:30pm 32.3 26.8 0.4 13 15.8 WSW 19 30 10 16 1014.0 1013.4 0.0
30/02:00pm 30.8 26.1 -1.9 12 15.4 W 13 24 7 13 1014.4 1013.8 0.0
30/01:30pm 30.7 25.4 -0.8 13 15.1 W 17 26 9 14 1014.8 1014.2 0.0
30/01:00pm 30.3 26.0 0.8 15 14.5 WNW 13 26 7 14 1015.3 1014.7 0.0
30/12:30pm 30.1 27.2 4.7 20 13.3 W 9 17 5 9 1015.8 1015.3 0.0
30/12:00pm 28.3 24.5 3.9 21 12.5 NNW 13 22 7 12 1016.5 1015.9 0.0
30/11:30am 27.4 23.2 3.8 22 12.0 WNW 15 22 8 12 1016.9 1016.3 0.0
30/11:00am 27.6 24.7 4.6 23 11.9 NW 9 13 5 7 1016.9 1016.3 0.0
30/10:30am 26.0 23.9 5.6 27 10.6 ESE 6 11 3 6 1017.2 1016.6 0.0
30/10:00am 24.5 22.1 5.3 29 9.8 SE 7 13 4 7 1017.3 1016.7 0.0
30/09:30am 23.2 20.8 6.9 35 8.5 ESE 9 13 5 7 1017.2 1016.6 0.0
30/09:00am 21.2 19.1 6.7 39 7.5 ESE 7 11 4 6 1017.3 1016.7 0.0
30/08:30am 18.7 15.9 6.9 46 6.0 ESE 11 13 6 7 1017.1 1016.5 0.0
30/08:00am 17.2 13.5 6.4 49 5.4 SE 15 20 8 11 1017.0 1016.4 0.0
30/07:30am 15.1 12.5 5.9 54 4.5 SE 9 15 5 8 1016.7 1016.1 0.0
30/07:00am 12.9 10.2 5.8 62 3.4 SSE 9 13 5 7 1016.7 1016.1 0.0
30/06:30am 10.6 7.5 5.4 70 2.4 SSE 11 13 6 7 1016.5 1015.9 0.0
30/06:00am 9.5 6.2 4.3 70 2.3 SE 11 11 6 6 1016.0 1015.4 0.0
30/05:30am 11.3 9.1 5.4 67 2.8 SE 6 11 3 6 1015.6 1015.1 0.0
30/05:00am 10.6 8.1 4.7 67 2.7 SE 7 13 4 7 1015.3 1014.7 0.0
30/04:30am 12.7 9.9 5.1 60 3.6 SE 9 15 5 8 1015.2 1014.6 0.0
30/04:00am 12.4 9.4 5.8 64 3.1 SSE 11 17 6 9 1015.1 1014.5 0.0
30/03:30am 11.6 8.0 5.0 64 3.1 SSE 13 15 7 8 1015.2 1014.6 0.0
30/03:00am 12.1 9.2 4.8 61 3.4 SE 9 11 5 6 1015.3 1014.7 0.0
30/02:30am 13.4 10.2 5.3 58 3.8 SSE 11 13 6 7 1015.5 1014.9 0.0
30/02:00am 13.5 11.2 5.9 60 3.7 SE 7 9 4 5 1015.6 1015.1 0.0
30/01:30am 13.6 10.9 5.5 58 3.9 ESE 9 9 5 5 1015.7 1015.2 0.0
30/01:00am 13.3 10.7 4.2 54 4.2 ESE 7 9 4 5 1016.0 1015.4 0.0
30/12:30am 15.4 13.1 5.0 50 5.0 ESE 6 6 3 3 1016.2 1015.6 0.0
30/12:00am 14.6 13.4 4.6 51 4.7 CALM 0 0 0 0 1016.3 1015.7 0.0
 
Date/Time
EDT
Temp
°C
App
Temp
°C
Dew
Point
Rel
Hum
%
Delta-T
°C
Wind Press
QNH
hPa
Press
MSL
hPa
Rain
since 9 am
mm
Dir
 
Spd
km/h
Gust
km/h
Spd
kts
Gust
kts
29/11:30pm 17.1 14.7 5.1 45 5.8 SSE 7 11 4 6 1016.3 1015.7 0.0

Other Formats:

Comma delimited format used in spreadsheet applications
http://www.bom.gov.au/fwo/IDN60801/IDN60801.95719.axf

JavaScript Object Notation format (JSON) in row-major order
http://www.bom.gov.au/fwo/IDN60801/IDN60801.95719.json